Time;durP1;ratioP1;P1;durP2;ratioP2;P2;SDS_P1;SDS_P2;PMS_P1;PMS_P2;Temp;Humidity;BMP_temperature;BMP_pressure;BME280_temperature;BME280_humidity;BME280_pressure;Samples;Min_cycle;Max_cycle;Signal;HPM_P1;HPM_P2
2024/01/20 00:01:08;;;;;;;9.88;3.67;;;0.90;99.90;;;;;;5014616;28;20079;-89
2024/01/20 00:03:36;;;;;;;7.35;3.55;;;0.90;99.90;;;;;;5031797;28;20513;-89
2024/01/20 00:06:01;;;;;;;7.47;3.78;;;0.90;99.90;;;;;;5031808;28;20075;-90
2024/01/20 00:08:27;;;;;;;11.13;5.72;;;0.90;99.90;;;;;;5031341;28;20108;-90
2024/01/20 00:10:52;;;;;;;8.57;4.53;;;0.80;99.90;;;;;;5048341;28;20127;-89
2024/01/20 00:13:18;;;;;;;16.10;5.25;;;0.80;99.90;;;;;;5031237;28;20060;-89
2024/01/20 00:15:44;;;;;;;11.98;5.50;;;0.80;99.90;;;;;;5014592;28;20036;-89
2024/01/20 00:18:09;;;;;;;8.38;4.25;;;0.80;99.90;;;;;;5031411;28;20041;-90
2024/01/20 00:20:35;;;;;;;10.73;5.30;;;0.80;99.90;;;;;;5031009;28;20044;-89
2024/01/20 00:23:01;;;;;;;7.85;4.03;;;0.80;99.90;;;;;;5014746;28;20036;-89
2024/01/20 00:25:26;;;;;;;5.78;3.35;;;0.80;99.90;;;;;;5030976;28;20070;-90
2024/01/20 00:27:52;;;;;;;9.45;5.63;;;0.70;99.90;;;;;;5030522;28;20033;-90
2024/01/20 00:30:17;;;;;;;9.25;4.25;;;0.70;99.90;;;;;;5014040;28;20510;-90
2024/01/20 00:32:43;;;;;;;5.05;2.72;;;0.70;99.90;;;;;;5031121;28;20047;-90
2024/01/20 00:35:08;;;;;;;11.63;4.43;;;0.70;99.90;;;;;;5014437;28;20033;-89
2024/01/20 00:37:38;;;;;;;9.50;4.05;;;0.70;99.90;;;;;;5031034;28;20037;-90
2024/01/20 00:40:05;;;;;;;8.40;4.72;;;0.70;99.90;;;;;;5030444;28;20671;-90
2024/01/20 00:42:31;;;;;;;8.90;4.22;;;0.70;99.90;;;;;;5049067;28;20112;-90
2024/01/20 00:44:56;;;;;;;16.52;5.15;;;0.70;99.90;;;;;;5048594;28;20124;-89
2024/01/20 00:47:22;;;;;;;12.10;5.80;;;0.70;99.90;;;;;;5030998;28;20033;-91
2024/01/20 00:49:56;;;;;;;8.95;4.07;;;0.70;99.90;;;;;;5013473;28;20033;-90
2024/01/20 00:52:22;;;;;;;6.85;3.13;;;0.70;99.90;;;;;;5014058;28;20407;-90
2024/01/20 00:54:49;;;;;;;13.80;6.88;;;0.70;99.90;;;;;;5031984;28;20497;-90
2024/01/20 00:57:14;;;;;;;10.65;5.20;;;0.70;99.90;;;;;;5014020;28;20033;-90
2024/01/20 00:59:40;;;;;;;10.60;4.80;;;0.70;99.90;;;;;;5037811;28;20096;-90
2024/01/20 01:02:06;;;;;;;11.85;6.03;;;0.60;99.90;;;;;;5030425;28;20064;-90
2024/01/20 01:04:31;;;;;;;12.35;5.90;;;0.60;99.90;;;;;;5039740;28;20104;-90
2024/01/20 01:06:57;;;;;;;9.48;4.88;;;0.60;99.90;;;;;;5020122;28;20123;-91
2024/01/20 01:09:22;;;;;;;12.95;5.80;;;0.60;99.90;;;;;;5016681;28;20040;-90
2024/01/20 01:11:48;;;;;;;11.07;5.13;;;0.60;99.90;;;;;;5050245;28;20373;-90
2024/01/20 01:14:14;;;;;;;13.30;6.93;;;0.60;99.90;;;;;;5045313;28;20033;-90
2024/01/20 01:16:39;;;;;;;18.10;6.97;;;0.60;99.90;;;;;;5033481;28;20032;-90
2024/01/20 01:19:05;;;;;;;8.80;4.30;;;0.60;99.90;;;;;;5032682;28;20457;-90
2024/01/20 01:21:30;;;;;;;12.27;6.80;;;0.60;99.90;;;;;;5017006;28;20120;-90
2024/01/20 01:23:56;;;;;;;16.63;7.93;;;0.60;99.90;;;;;;5014558;28;20790;-90
2024/01/20 01:26:23;;;;;;;14.23;8.10;;;0.60;99.90;;;;;;5014584;28;20082;-90
2024/01/20 01:28:49;;;;;;;12.10;5.57;;;0.60;99.90;;;;;;5030047;28;20041;-91
2024/01/20 01:31:14;;;;;;;11.60;4.57;;;0.60;99.90;;;;;;5030434;28;20047;-91
2024/01/20 01:33:40;;;;;;;11.73;6.97;;;0.60;99.90;;;;;;5048167;28;20119;-90
2024/01/20 01:36:06;;;;;;;11.43;5.85;;;0.60;99.90;;;;;;5047995;28;20029;-90
2024/01/20 01:38:32;;;;;;;9.20;4.85;;;0.50;99.90;;;;;;5030282;28;20158;-91
2024/01/20 01:40:58;;;;;;;14.35;6.07;;;0.50;99.90;;;;;;5013884;28;20073;-90
2024/01/20 01:43:23;;;;;;;16.88;6.82;;;0.50;99.90;;;;;;5013828;28;20132;-90
2024/01/20 01:45:49;;;;;;;12.82;5.22;;;0.60;99.90;;;;;;5030247;28;20120;-90
2024/01/20 01:48:15;;;;;;;11.10;5.03;;;0.60;99.90;;;;;;5047979;28;20043;-90
2024/01/20 01:50:41;;;;;;;10.98;5.65;;;0.60;99.90;;;;;;5030497;28;20037;-90
2024/01/20 01:53:09;;;;;;;10.85;5.10;;;0.60;99.90;;;;;;5029813;28;20037;-90
2024/01/20 01:55:35;;;;;;;13.35;6.45;;;0.60;99.90;;;;;;5030380;28;20037;-90
2024/01/20 01:58:02;;;;;;;12.27;5.15;;;0.70;99.90;;;;;;5013325;28;20528;-90
2024/01/20 02:00:29;;;;;;;10.15;6.05;;;0.60;99.90;;;;;;5013600;28;20381;-90
2024/01/20 02:02:54;;;;;;;8.95;5.13;;;0.60;99.90;;;;;;5029984;28;20029;-91
2024/01/20 02:05:20;;;;;;;12.95;6.97;;;0.50;99.90;;;;;;5013642;28;20033;-90
2024/01/20 02:07:48;;;;;;;9.07;5.47;;;0.60;99.90;;;;;;5012859;28;20527;-90
2024/01/20 02:10:18;;;;;;;9.57;6.88;;;0.50;99.90;;;;;;5029902;28;20047;-88
2024/01/20 02:12:44;;;;;;;15.73;7.63;;;0.50;99.90;;;;;;5011578;28;20037;-88
2024/01/20 02:15:10;;;;;;;11.68;5.25;;;0.50;99.90;;;;;;5013509;28;20033;-88
2024/01/20 02:17:36;;;;;;;21.88;7.15;;;0.50;99.90;;;;;;5013415;28;20415;-88
2024/01/20 02:20:02;;;;;;;14.02;5.85;;;0.50;99.90;;;;;;5013190;28;20072;-89
2024/01/20 02:22:27;;;;;;;12.55;8.20;;;0.50;99.90;;;;;;5029617;28;20033;-88
2024/01/20 02:24:53;;;;;;;10.10;4.63;;;0.50;99.90;;;;;;5013881;28;20044;-89
2024/01/20 02:27:19;;;;;;;16.35;9.23;;;0.40;99.90;;;;;;5033737;28;20507;-89
2024/01/20 02:29:45;;;;;;;12.75;7.70;;;0.40;99.90;;;;;;5016763;28;20153;-90
2024/01/20 02:32:11;;;;;;;19.88;9.68;;;0.40;99.90;;;;;;5033705;28;20041;-89
2024/01/20 02:34:37;;;;;;;11.63;6.40;;;0.40;99.90;;;;;;5016289;28;20037;-89
2024/01/20 02:37:07;;;;;;;11.73;6.22;;;0.40;99.90;;;;;;5015449;28;20044;-89
2024/01/20 02:39:33;;;;;;;11.25;5.35;;;0.30;99.90;;;;;;5016501;28;20033;-89
2024/01/20 02:41:58;;;;;;;9.60;5.18;;;0.30;99.90;;;;;;5032511;28;20044;-89
2024/01/20 02:44:24;;;;;;;12.50;6.65;;;0.30;99.90;;;;;;5050238;28;20044;-90
2024/01/20 02:46:52;;;;;;;18.13;10.32;;;0.30;99.90;;;;;;5049988;28;20021;-90
2024/01/20 02:49:18;;;;;;;17.48;7.68;;;0.30;99.90;;;;;;5049932;28;20057;-90
2024/01/20 02:51:43;;;;;;;11.18;3.85;;;0.30;99.90;;;;;;5032005;28;20047;-90
2024/01/20 02:54:09;;;;;;;11.48;6.13;;;0.20;99.90;;;;;;5016329;28;20064;-89
2024/01/20 02:56:34;;;;;;;10.40;5.68;;;0.20;99.90;;;;;;5016750;28;20115;-90
2024/01/20 02:59:00;;;;;;;17.17;8.95;;;0.20;99.90;;;;;;5032508;28;20432;-89
2024/01/20 03:01:26;;;;;;;15.88;7.60;;;0.20;99.90;;;;;;5032834;28;20033;-89
2024/01/20 03:03:51;;;;;;;9.93;5.43;;;0.10;99.90;;;;;;5015832;28;20048;-90
2024/01/20 03:06:17;;;;;;;16.73;9.48;;;0.10;99.90;;;;;;5016046;28;20037;-89
2024/01/20 03:08:42;;;;;;;14.90;8.05;;;0.10;99.90;;;;;;5032598;28;20128;-89
2024/01/20 03:11:08;;;;;;;12.15;6.78;;;0.10;99.90;;;;;;5032755;28;20484;-89
2024/01/20 03:13:33;;;;;;;17.65;6.53;;;0.10;99.90;;;;;;5032481;28;20079;-89
2024/01/20 03:15:59;;;;;;;17.35;7.93;;;0.10;99.90;;;;;;5016266;28;20478;-89
2024/01/20 03:18:25;;;;;;;20.77;8.95;;;0.10;99.90;;;;;;5032550;28;20041;-88
2024/01/20 03:20:50;;;;;;;13.02;7.30;;;0.10;99.90;;;;;;5015775;28;20036;-89
2024/01/20 03:23:16;;;;;;;16.25;7.13;;;0.00;99.90;;;;;;5015437;28;20033;-88
2024/01/20 03:25:41;;;;;;;14.07;6.85;;;0.10;99.90;;;;;;5015674;28;20106;-89
2024/01/20 03:28:07;;;;;;;16.05;8.45;;;0.00;99.90;;;;;;5016066;28;20115;-89
2024/01/20 03:30:32;;;;;;;23.25;10.63;;;0.00;99.90;;;;;;5032074;28;20029;-89
2024/01/20 03:32:58;;;;;;;14.13;7.32;;;0.00;99.90;;;;;;5015832;28;20044;-89
2024/01/20 03:35:24;;;;;;;10.85;6.28;;;0.00;99.90;;;;;;5016497;28;20140;-89
2024/01/20 03:37:50;;;;;;;17.92;8.80;;;0.00;99.90;;;;;;5015166;28;20048;-89
2024/01/20 03:40:16;;;;;;;10.57;6.55;;;0.00;99.90;;;;;;5015982;28;20545;-89
2024/01/20 03:42:41;;;;;;;14.48;7.00;;;-0.10;99.90;;;;;;5050109;28;20037;-89
2024/01/20 03:45:07;;;;;;;21.45;10.02;;;-0.10;99.90;;;;;;5015036;28;20115;-89
2024/01/20 03:47:33;;;;;;;13.25;6.95;;;0.00;99.90;;;;;;5015608;28;20029;-89
2024/01/20 03:49:58;;;;;;;23.40;10.25;;;0.00;99.90;;;;;;5031832;28;20033;-88
2024/01/20 03:52:24;;;;;;;17.48;9.60;;;-0.10;99.90;;;;;;5031794;28;20106;-89
2024/01/20 03:54:49;;;;;;;22.15;12.55;;;-0.10;99.90;;;;;;5015601;28;20397;-89
2024/01/20 03:57:15;;;;;;;12.57;6.35;;;-0.10;99.90;;;;;;5015659;28;20067;-89
2024/01/20 03:59:40;;;;;;;22.60;9.95;;;-0.10;99.90;;;;;;5015394;28;20453;-89
2024/01/20 04:02:06;;;;;;;23.00;12.15;;;-0.10;99.90;;;;;;5049432;28;20056;-89
2024/01/20 04:04:32;;;;;;;15.10;7.50;;;-0.10;99.90;;;;;;5031400;28;20383;-90
2024/01/20 04:06:57;;;;;;;22.23;10.70;;;-0.10;99.90;;;;;;5031664;28;20415;-89
2024/01/20 04:09:23;;;;;;;16.60;9.57;;;-0.10;99.90;;;;;;5031729;28;20132;-89
2024/01/20 04:11:49;;;;;;;18.10;8.10;;;-0.20;99.90;;;;;;5014515;28;20044;-89
2024/01/20 04:14:14;;;;;;;14.20;7.50;;;-0.20;99.90;;;;;;5014462;28;20032;-88
2024/01/20 04:16:40;;;;;;;10.40;5.57;;;-0.20;99.90;;;;;;5015191;28;20045;-88
2024/01/20 04:19:05;;;;;;;18.13;8.15;;;-0.20;99.90;;;;;;5031365;28;20142;-88
2024/01/20 04:21:31;;;;;;;22.95;11.43;;;-0.20;99.90;;;;;;5014846;28;20032;-88
2024/01/20 04:23:57;;;;;;;29.42;9.35;;;-0.20;99.90;;;;;;5014224;28;20110;-88
2024/01/20 04:26:22;;;;;;;21.98;8.35;;;-0.10;99.90;;;;;;5014699;28;20036;-89
2024/01/20 04:28:48;;;;;;;24.95;10.30;;;-0.20;99.90;;;;;;5031005;28;20397;-89
2024/01/20 04:31:13;;;;;;;26.13;11.88;;;-0.20;99.90;;;;;;5030887;28;20043;-89
2024/01/20 04:33:40;;;;;;;16.60;8.23;;;-0.20;99.90;;;;;;5030720;28;20105;-89
2024/01/20 04:36:06;;;;;;;20.13;10.32;;;-0.20;99.90;;;;;;5031315;28;20045;-88
2024/01/20 04:38:32;;;;;;;11.20;5.95;;;-0.20;99.90;;;;;;5030760;28;20056;-89
2024/01/20 04:40:58;;;;;;;15.20;6.80;;;-0.20;99.90;;;;;;5014095;28;20162;-89
2024/01/20 04:43:23;;;;;;;26.42;10.35;;;-0.20;99.90;;;;;;5030817;28;20087;-89
2024/01/20 04:45:49;;;;;;;15.85;6.30;;;-0.30;99.90;;;;;;5030898;28;20033;-89
2024/01/20 04:48:16;;;;;;;15.20;7.18;;;-0.30;99.90;;;;;;5013782;28;20463;-89
2024/01/20 04:50:42;;;;;;;24.27;11.50;;;-0.30;99.90;;;;;;5013977;28;20128;-89
2024/01/20 04:53:07;;;;;;;25.75;13.20;;;-0.30;99.90;;;;;;5030770;28;20115;-89
2024/01/20 04:55:33;;;;;;;28.15;14.18;;;-0.30;99.90;;;;;;5030529;28;20176;-89
2024/01/20 04:57:58;;;;;;;27.30;13.05;;;-0.30;99.90;;;;;;5030982;28;20033;-89
2024/01/20 05:00:24;;;;;;;26.65;11.77;;;-0.30;99.90;;;;;;5030998;28;20047;-88
2024/01/20 05:02:49;;;;;;;26.48;12.00;;;-0.30;99.90;;;;;;5029933;28;20424;-89
2024/01/20 05:05:15;;;;;;;36.42;14.32;;;-0.40;99.90;;;;;;5030562;28;20036;-89
2024/01/20 05:07:41;;;;;;;25.75;10.63;;;-0.40;99.90;;;;;;5030298;28;20033;-89
2024/01/20 05:10:06;;;;;;;13.77;6.72;;;-0.40;99.90;;;;;;5047845;28;20502;-89
2024/01/20 05:12:32;;;;;;;18.45;7.53;;;-0.40;99.90;;;;;;5014472;28;20044;-89
2024/01/20 05:14:58;;;;;;;26.25;11.70;;;-0.40;99.90;;;;;;5014153;28;20123;-89
2024/01/20 05:17:23;;;;;;;18.88;7.60;;;-0.40;99.90;;;;;;5030408;28;20100;-89
2024/01/20 05:19:49;;;;;;;19.67;8.88;;;-0.40;99.90;;;;;;5014076;28;20032;-89
2024/01/20 05:22:17;;;;;;;13.57;8.43;;;-0.40;99.90;;;;;;5013887;28;20040;-88
2024/01/20 05:24:42;;;;;;;23.35;9.52;;;-0.40;99.90;;;;;;5047068;28;20025;-89
2024/01/20 05:27:08;;;;;;;12.68;7.28;;;-0.40;99.90;;;;;;5030280;28;20562;-89
2024/01/20 05:29:33;;;;;;;22.42;10.63;;;-0.40;99.90;;;;;;5013974;28;20045;-89
2024/01/20 05:31:59;;;;;;;24.50;11.60;;;-0.40;99.90;;;;;;5030090;28;20407;-89
2024/01/20 05:34:24;;;;;;;28.02;13.82;;;-0.40;99.90;;;;;;5013204;28;20040;-88
2024/01/20 05:36:50;;;;;;;34.05;13.20;;;-0.40;99.90;;;;;;5030552;28;20064;-89
2024/01/20 05:39:16;;;;;;;30.15;13.27;;;-0.40;99.90;;;;;;5014137;28;20581;-89
2024/01/20 05:41:41;;;;;;;17.67;8.73;;;-0.40;99.90;;;;;;5029806;28;20496;-89
2024/01/20 05:44:07;;;;;;;27.75;12.27;;;-0.40;99.90;;;;;;5029814;28;20033;-89
2024/01/20 05:46:33;;;;;;;19.00;9.60;;;-0.40;99.90;;;;;;5013613;28;20056;-89
2024/01/20 05:48:58;;;;;;;12.63;8.40;;;-0.40;99.90;;;;;;5029962;28;20400;-89
2024/01/20 05:51:24;;;;;;;13.48;7.30;;;-0.40;99.90;;;;;;5031018;28;20033;-89
2024/01/20 05:53:50;;;;;;;15.82;7.43;;;-0.30;99.90;;;;;;5015052;28;20052;-89
2024/01/20 05:56:16;;;;;;;18.00;7.75;;;-0.30;99.90;;;;;;5030019;28;21169;-89
2024/01/20 05:58:41;;;;;;;18.30;6.90;;;-0.30;99.90;;;;;;5013702;28;20044;-89
2024/01/20 06:01:09;;;;;;;21.35;9.43;;;-0.30;99.90;;;;;;5050579;28;20116;-89
2024/01/20 06:03:35;;;;;;;17.13;8.45;;;-0.20;99.90;;;;;;5016987;28;20500;-89
2024/01/20 06:06:00;;;;;;;16.05;8.65;;;-0.30;99.90;;;;;;5033277;28;20037;-89
2024/01/20 06:08:26;;;;;;;16.60;8.52;;;-0.30;99.90;;;;;;5017525;28;20061;-89
2024/01/20 06:10:52;;;;;;;13.85;6.32;;;-0.30;99.90;;;;;;5017162;28;20063;-89
2024/01/20 06:13:18;;;;;;;16.13;8.00;;;-0.30;99.90;;;;;;5033656;28;20032;-90
2024/01/20 06:15:44;;;;;;;25.67;11.48;;;-0.30;99.90;;;;;;5033460;28;20047;-88
2024/01/20 06:18:10;;;;;;;15.07;5.18;;;-0.30;99.90;;;;;;5034019;28;20116;-89
2024/01/20 06:20:35;;;;;;;14.98;6.93;;;-0.20;99.90;;;;;;5018046;28;20036;-89
2024/01/20 06:23:01;;;;;;;13.02;6.25;;;-0.30;99.90;;;;;;5033584;28;20385;-89
2024/01/20 06:25:26;;;;;;;19.90;7.97;;;-0.30;99.90;;;;;;5033622;28;20041;-89
2024/01/20 06:27:53;;;;;;;13.32;5.63;;;-0.30;99.90;;;;;;5033304;28;20684;-89
2024/01/20 06:30:18;;;;;;;14.88;8.15;;;-0.20;99.90;;;;;;5032842;28;20040;-90
2024/01/20 06:32:45;;;;;;;12.30;5.55;;;-0.30;99.90;;;;;;5033651;28;20033;-90
2024/01/20 06:35:11;;;;;;;13.05;5.43;;;-0.30;99.90;;;;;;5033598;28;20048;-89
2024/01/20 06:37:36;;;;;;;15.77;7.07;;;-0.20;99.90;;;;;;5017092;28;20044;-90
2024/01/20 06:40:02;;;;;;;13.65;5.88;;;-0.30;99.90;;;;;;5035717;28;20044;-90
2024/01/20 06:42:28;;;;;;;20.70;9.98;;;-0.30;99.90;;;;;;5051488;28;20064;-89
2024/01/20 06:44:54;;;;;;;17.40;8.10;;;-0.30;99.90;;;;;;5016234;28;20033;-90
2024/01/20 06:47:20;;;;;;;31.25;11.93;;;-0.30;99.90;;;;;;5016932;28;20033;-90
2024/01/20 06:49:49;;;;;;;15.55;7.30;;;-0.30;99.90;;;;;;5017101;28;20041;-89
2024/01/20 06:52:15;;;;;;;13.98;7.10;;;-0.30;99.90;;;;;;5032862;28;20076;-91
2024/01/20 06:54:41;;;;;;;26.30;10.27;;;-0.30;99.90;;;;;;5033637;28;20048;-90
2024/01/20 06:57:06;;;;;;;13.13;6.32;;;-0.30;99.90;;;;;;5033272;28;20033;-90
2024/01/20 06:59:32;;;;;;;22.25;10.07;;;-0.30;99.90;;;;;;5017087;28;20072;-90
2024/01/20 07:01:58;;;;;;;13.60;5.13;;;-0.30;99.90;;;;;;5033328;28;20049;-90
2024/01/20 07:04:24;;;;;;;16.98;6.65;;;-0.30;99.90;;;;;;5015911;28;20040;-90
2024/01/20 07:06:50;;;;;;;14.55;5.35;;;-0.30;99.90;;;;;;5016891;28;20033;-91
2024/01/20 07:09:15;;;;;;;20.88;9.40;;;-0.30;99.90;;;;;;5032168;28;20689;-90
2024/01/20 07:11:41;;;;;;;19.00;8.80;;;-0.30;99.90;;;;;;5013753;28;20037;-90
2024/01/20 07:14:06;;;;;;;20.45;10.25;;;-0.30;99.90;;;;;;5032474;28;20033;-89
2024/01/20 07:16:32;;;;;;;23.58;9.57;;;-0.30;99.90;;;;;;5016201;28;20126;-90
2024/01/20 07:18:58;;;;;;;25.13;12.35;;;-0.30;99.90;;;;;;5015972;28;20147;-90
2024/01/20 07:21:23;;;;;;;9.95;4.15;;;-0.40;99.90;;;;;;5018070;28;20033;-90
2024/01/20 07:23:49;;;;;;;22.17;7.38;;;-0.40;99.90;;;;;;5032574;28;20049;-90
2024/01/20 07:26:15;;;;;;;17.67;9.30;;;-0.40;99.90;;;;;;5032970;28;20037;-89
2024/01/20 07:28:41;;;;;;;25.52;10.30;;;-0.30;99.90;;;;;;5016172;28;20124;-91
2024/01/20 07:31:06;;;;;;;23.27;11.23;;;-0.40;99.90;;;;;;5032742;28;20174;-90
2024/01/20 07:33:33;;;;;;;28.98;11.50;;;-0.40;99.90;;;;;;5032288;28;20044;-90
2024/01/20 07:35:59;;;;;;;19.35;8.18;;;-0.40;99.90;;;;;;5032180;28;20064;-90
2024/01/20 07:38:25;;;;;;;21.23;10.10;;;-0.40;99.90;;;;;;5032860;28;20112;-90
2024/01/20 07:40:53;;;;;;;28.02;10.45;;;-0.40;99.90;;;;;;5032086;28;20138;-87
2024/01/20 07:43:20;;;;;;;15.25;6.85;;;-0.40;99.90;;;;;;5015407;28;20040;-87
2024/01/20 07:45:46;;;;;;;21.83;8.27;;;-0.40;99.90;;;;;;5017010;28;20037;-89
2024/01/20 07:48:11;;;;;;;15.00;7.45;;;-0.30;99.90;;;;;;5032718;28;20048;-89
2024/01/20 07:50:37;;;;;;;11.75;6.38;;;-0.30;99.90;;;;;;5033000;28;20037;-89
2024/01/20 07:53:03;;;;;;;21.55;8.38;;;-0.40;99.90;;;;;;5015432;28;20492;-90
2024/01/20 07:55:29;;;;;;;13.18;6.63;;;-0.40;99.90;;;;;;5026771;28;20092;-90
2024/01/20 07:57:55;;;;;;;21.65;7.78;;;-0.40;99.90;;;;;;5027978;28;20143;-90
2024/01/20 08:00:21;;;;;;;14.07;5.45;;;-0.40;99.90;;;;;;5037832;28;20040;-90
2024/01/20 08:02:47;;;;;;;13.55;5.22;;;-0.30;99.90;;;;;;5021549;28;20033;-90
2024/01/20 08:05:12;;;;;;;15.50;6.63;;;-0.30;99.90;;;;;;5040166;28;20055;-90
2024/01/20 08:07:38;;;;;;;17.73;7.65;;;-0.30;99.90;;;;;;5050863;28;20127;-91
2024/01/20 08:10:04;;;;;;;21.80;7.97;;;-0.30;99.90;;;;;;5036496;28;20099;-91
2024/01/20 08:12:31;;;;;;;14.88;6.75;;;-0.30;99.90;;;;;;5016851;28;20477;-90
2024/01/20 08:14:56;;;;;;;12.75;6.55;;;-0.30;99.90;;;;;;5015601;28;20120;-90
2024/01/20 08:17:22;;;;;;;18.52;8.77;;;-0.20;99.90;;;;;;5017718;28;20104;-90
2024/01/20 08:19:49;;;;;;;12.82;5.25;;;-0.20;99.90;;;;;;5049640;28;20439;-90
2024/01/20 08:22:14;;;;;;;27.77;11.40;;;-0.20;99.90;;;;;;5048909;28;20108;-91
2024/01/20 08:24:40;;;;;;;22.25;8.32;;;-0.10;99.90;;;;;;5014947;28;20128;-90
2024/01/20 08:27:05;;;;;;;21.80;8.93;;;-0.10;99.90;;;;;;5016577;28;20090;-89
2024/01/20 08:29:31;;;;;;;23.70;9.13;;;-0.10;99.90;;;;;;5032479;28;20041;-90
2024/01/20 08:31:56;;;;;;;19.88;8.48;;;0.00;99.90;;;;;;5035202;28;20033;-90
2024/01/20 08:34:22;;;;;;;14.30;6.75;;;0.00;99.90;;;;;;5048916;28;20545;-90
2024/01/20 08:36:48;;;;;;;27.80;11.00;;;0.00;99.90;;;;;;5047937;28;20127;-91
2024/01/20 08:39:15;;;;;;;24.70;11.85;;;0.10;99.90;;;;;;5049009;28;20498;-90
2024/01/20 08:41:41;;;;;;;30.95;12.15;;;0.20;99.90;;;;;;5030285;28;20082;-90
2024/01/20 08:44:06;;;;;;;14.88;6.50;;;0.20;99.90;;;;;;5048600;28;20040;-91
2024/01/20 08:46:32;;;;;;;21.73;11.05;;;0.20;99.90;;;;;;5015640;28;20029;-91
2024/01/20 08:48:58;;;;;;;14.73;7.00;;;0.30;99.90;;;;;;5015294;28;20060;-92
2024/01/20 08:51:24;;;;;;;20.40;9.70;;;0.30;99.90;;;;;;5015998;28;20056;-90
2024/01/20 08:53:49;;;;;;;20.75;7.10;;;0.40;99.90;;;;;;5046311;28;20041;-90
2024/01/20 08:56:15;;;;;;;21.52;8.75;;;0.40;99.90;;;;;;5048551;28;20044;-91
2024/01/20 08:58:41;;;;;;;13.55;6.22;;;0.50;99.90;;;;;;5029270;28;20033;-91
2024/01/20 09:01:08;;;;;;;18.90;8.32;;;0.50;99.90;;;;;;5015087;28;20127;-92
2024/01/20 09:03:33;;;;;;;12.73;6.60;;;0.60;99.90;;;;;;5014050;28;20123;-90
2024/01/20 09:05:59;;;;;;;12.63;5.00;;;0.60;99.90;;;;;;5032002;28;20086;-90
2024/01/20 09:08:25;;;;;;;14.15;6.78;;;0.70;99.90;;;;;;5030971;28;20068;-90
2024/01/20 09:10:51;;;;;;;21.48;8.27;;;0.70;99.90;;;;;;5013328;28;20488;-91
2024/01/20 09:13:17;;;;;;;9.25;4.90;;;0.70;99.90;;;;;;5032544;28;20119;-90
2024/01/20 09:15:46;;;;;;;16.08;7.07;;;0.70;99.90;;;;;;5030584;28;20045;-90
2024/01/20 09:18:15;;;;;;;13.52;6.60;;;0.80;99.90;;;;;;5013449;28;20080;-91
2024/01/20 09:20:41;;;;;;;18.98;8.52;;;0.80;99.90;;;;;;5029097;28;20124;-90
2024/01/20 09:23:07;;;;;;;16.83;4.85;;;0.80;99.90;;;;;;5029698;28;20144;-89
2024/01/20 09:25:33;;;;;;;18.10;7.85;;;0.90;99.90;;;;;;5046782;28;20519;-89
2024/01/20 09:28:00;;;;;;;18.02;8.82;;;0.90;99.90;;;;;;5029041;28;20032;-89
2024/01/20 09:30:26;;;;;;;14.70;7.50;;;0.90;99.90;;;;;;5031808;28;20028;-90
2024/01/20 09:32:52;;;;;;;20.40;8.32;;;1.00;99.90;;;;;;5029301;28;20463;-90
2024/01/20 09:35:17;;;;;;;27.70;11.40;;;1.00;99.90;;;;;;5028917;28;20033;-90
2024/01/20 09:37:43;;;;;;;22.50;10.05;;;1.10;99.90;;;;;;5030325;28;20036;-90
2024/01/20 09:40:09;;;;;;;21.25;9.63;;;1.10;99.90;;;;;;5015268;28;20503;-90
2024/01/20 09:42:35;;;;;;;20.08;8.77;;;1.10;99.90;;;;;;5029021;28;20029;-88
2024/01/20 09:45:01;;;;;;;13.07;4.85;;;1.20;99.90;;;;;;5011602;28;20322;-89
2024/01/20 09:47:27;;;;;;;14.38;6.72;;;1.20;99.90;;;;;;5011754;28;20124;-89
2024/01/20 09:49:53;;;;;;;17.85;7.45;;;1.30;99.90;;;;;;5028169;28;20068;-89
2024/01/20 09:52:27;;;;;;;15.48;5.85;;;1.30;99.90;;;;;;5011825;28;20052;-89
2024/01/20 09:55:07;;;;;;;17.92;7.93;;;1.30;99.90;;;;;;5026965;28;20086;-88
2024/01/20 09:57:35;;;;;;;15.27;6.97;;;1.40;99.90;;;;;;5012134;28;20044;-89
2024/01/20 10:00:02;;;;;;;31.67;7.57;;;1.40;99.90;;;;;;5029849;28;20037;-89
2024/01/20 10:02:29;;;;;;;16.92;7.82;;;1.50;99.90;;;;;;5013329;28;20043;-89
2024/01/20 10:04:58;;;;;;;10.38;5.10;;;1.50;99.90;;;;;;5013250;28;20120;-89
2024/01/20 10:07:31;;;;;;;20.17;7.63;;;1.50;99.90;;;;;;5014671;28;20037;-88
2024/01/20 10:09:57;;;;;;;19.13;9.25;;;1.60;99.90;;;;;;5015057;28;20036;-88
2024/01/20 10:12:26;;;;;;;13.30;6.45;;;1.60;99.90;;;;;;5017989;28;20040;-88
2024/01/20 10:14:57;;;;;;;17.77;5.45;;;1.70;99.90;;;;;;5011029;28;20044;-88
2024/01/20 10:17:26;;;;;;;16.83;6.53;;;1.70;99.90;;;;;;5010973;28;20436;-88
2024/01/20 10:19:51;;;;;;;20.75;8.68;;;1.70;99.90;;;;;;5026806;28;20048;-88
2024/01/20 10:22:17;;;;;;;23.38;7.43;;;1.70;99.90;;;;;;5011595;28;20025;-88
2024/01/20 10:24:52;;;;;;;20.08;8.32;;;1.70;99.90;;;;;;5010887;28;20111;-88
2024/01/20 10:27:19;;;;;;;21.92;8.70;;;1.80;99.90;;;;;;5012140;28;20465;-88
2024/01/20 10:29:46;;;;;;;14.30;7.35;;;1.80;99.90;;;;;;5030125;28;20044;-87
2024/01/20 10:32:13;;;;;;;15.30;6.65;;;1.80;99.90;;;;;;5015330;28;20040;-88
2024/01/20 10:34:39;;;;;;;15.93;6.65;;;1.90;99.90;;;;;;5027214;28;20086;-88
2024/01/20 10:37:11;;;;;;;13.55;6.13;;;1.90;99.90;;;;;;5030083;28;20040;-88
2024/01/20 10:39:43;;;;;;;9.23;3.75;;;2.00;99.90;;;;;;5032852;28;20098;-88
2024/01/20 10:42:13;;;;;;;14.50;7.20;;;1.90;99.90;;;;;;5028766;28;20087;-88
2024/01/20 10:44:44;;;;;;;15.27;5.45;;;2.00;99.90;;;;;;5029702;28;20037;-88
2024/01/20 10:47:34;;;;;;;14.80;6.90;;;2.00;99.90;;;;;;5016784;28;20040;-88
2024/01/20 10:50:04;;;;;;;11.70;4.43;;;2.00;99.90;;;;;;5017208;28;20037;-87
2024/01/20 10:52:32;;;;;;;12.85;5.10;;;2.10;99.90;;;;;;5019848;28;20480;-88
2024/01/20 10:54:59;;;;;;;12.65;6.25;;;2.10;99.90;;;;;;5020977;28;20047;-88
2024/01/20 10:57:26;;;;;;;12.88;5.95;;;2.10;99.90;;;;;;5016869;28;20130;-88
2024/01/20 10:59:53;;;;;;;12.93;6.57;;;2.10;99.90;;;;;;5050345;28;20568;-88
2024/01/20 11:02:21;;;;;;;10.75;4.47;;;2.20;99.90;;;;;;5051168;28;20025;-89
2024/01/20 11:04:47;;;;;;;11.23;5.03;;;2.20;99.90;;;;;;5016529;28;20040;-88
2024/01/20 11:07:12;;;;;;;13.88;4.28;;;2.20;99.90;;;;;;5018181;28;20450;-88
2024/01/20 11:09:39;;;;;;;11.65;4.40;;;2.20;99.90;;;;;;5051131;28;20124;-89
2024/01/20 11:12:09;;;;;;;6.40;3.75;;;2.20;99.90;;;;;;5015115;28;20040;-89
2024/01/20 11:14:35;;;;;;;16.20;5.40;;;2.20;99.90;;;;;;5032678;28;20037;-88
2024/01/20 11:17:12;;;;;;;7.25;2.63;;;2.20;99.90;;;;;;5016819;28;20043;-89
2024/01/20 11:19:38;;;;;;;11.27;4.55;;;2.20;99.90;;;;;;5035587;28;20049;-89
2024/01/20 11:22:24;;;;;;;16.30;6.55;;;2.30;99.90;;;;;;5050355;28;20037;-89
2024/01/20 11:24:52;;;;;;;10.48;4.07;;;2.30;99.90;;;;;;5020583;28;20045;-89
2024/01/20 11:27:18;;;;;;;12.32;5.78;;;2.30;99.90;;;;;;5016149;28;20119;-88
2024/01/20 11:29:44;;;;;;;15.48;7.53;;;2.30;99.90;;;;;;5016608;28;20124;-88
2024/01/20 11:32:09;;;;;;;13.25;5.75;;;2.30;99.90;;;;;;5032773;28;20037;-88
2024/01/20 11:34:35;;;;;;;10.75;4.68;;;2.30;99.90;;;;;;5033907;28;20044;-88
2024/01/20 11:37:01;;;;;;;16.08;6.90;;;2.30;99.90;;;;;;5050785;28;20033;-89
2024/01/20 11:39:27;;;;;;;18.45;8.00;;;2.30;99.90;;;;;;5018952;28;20052;-88
2024/01/20 11:42:02;;;;;;;13.23;5.68;;;2.30;99.90;;;;;;5033626;28;20132;-89
2024/01/20 11:44:31;;;;;;;10.43;4.63;;;2.30;99.90;;;;;;5019871;28;20041;-89
2024/01/20 11:46:58;;;;;;;20.48;7.15;;;2.30;99.90;;;;;;5032125;28;20044;-88
2024/01/20 11:49:24;;;;;;;8.20;4.45;;;2.30;99.90;;;;;;5048607;28;20037;-88
2024/01/20 11:51:50;;;;;;;15.90;7.40;;;2.30;99.90;;;;;;5019466;28;20086;-89
2024/01/20 11:54:15;;;;;;;9.85;4.72;;;2.30;99.90;;;;;;5032363;28;20033;-90
2024/01/20 11:56:41;;;;;;;10.00;4.57;;;2.30;99.90;;;;;;5016620;28;20060;-90
2024/01/20 11:59:07;;;;;;;14.82;5.63;;;2.40;99.90;;;;;;5015524;28;20094;-90
2024/01/20 12:01:32;;;;;;;9.52;3.70;;;2.30;99.90;;;;;;5015620;28;20771;-90
2024/01/20 12:03:59;;;;;;;16.13;6.80;;;2.30;99.90;;;;;;5015519;28;20048;-90
2024/01/20 12:06:25;;;;;;;11.63;6.03;;;2.30;99.90;;;;;;5016927;28;20025;-90
2024/01/20 12:08:51;;;;;;;14.98;7.47;;;2.40;99.90;;;;;;5015191;28;20433;-91
2024/01/20 12:11:19;;;;;;;14.20;5.85;;;2.30;99.90;;;;;;5035817;28;20579;-90
2024/01/20 12:13:46;;;;;;;15.50;6.35;;;2.40;99.90;;;;;;5021799;28;20033;-90
2024/01/20 12:16:12;;;;;;;10.15;4.78;;;2.30;99.90;;;;;;5021739;28;20060;-90
2024/01/20 12:18:37;;;;;;;11.00;4.25;;;2.30;99.90;;;;;;5019820;28;20500;-90
2024/01/20 12:21:03;;;;;;;9.38;3.85;;;2.40;99.90;;;;;;5021306;28;20029;-90
2024/01/20 12:23:29;;;;;;;15.80;6.05;;;2.40;99.90;;;;;;5021056;28;20442;-90
2024/01/20 12:25:54;;;;;;;13.90;6.15;;;2.40;99.90;;;;;;5020455;28;20098;-90
2024/01/20 12:28:21;;;;;;;13.93;5.85;;;2.50;99.90;;;;;;5019629;28;20386;-89
2024/01/20 12:30:46;;;;;;;11.00;5.40;;;2.50;99.90;;;;;;5020553;28;20041;-91
2024/01/20 12:33:12;;;;;;;9.52;3.65;;;2.50;99.90;;;;;;5036932;28;20254;-90
2024/01/20 12:35:38;;;;;;;14.07;4.32;;;2.50;99.90;;;;;;5020892;28;20500;-89
2024/01/20 12:38:03;;;;;;;12.13;4.95;;;2.50;99.90;;;;;;5055425;28;20371;-89